createdAt,value
2018-09-30T00:01:34.315Z,956.69
2018-09-30T00:04:00.630Z,956.64
2018-09-30T00:06:26.950Z,956.67
2018-09-30T00:08:53.265Z,956.69
2018-09-30T00:11:19.582Z,956.69
2018-09-30T00:13:45.897Z,956.76
2018-09-30T00:16:12.213Z,956.78
2018-09-30T00:18:38.527Z,956.78
2018-09-30T00:21:04.842Z,956.77
2018-09-30T00:23:31.162Z,956.86
2018-09-30T00:25:57.473Z,956.87
2018-09-30T00:28:23.793Z,956.83
2018-09-30T00:30:50.120Z,956.84
2018-09-30T00:33:16.431Z,956.90
2018-09-30T00:35:42.753Z,956.88
2018-09-30T00:38:09.068Z,956.85
2018-09-30T00:40:35.392Z,956.85
2018-09-30T00:43:01.712Z,956.89
2018-09-30T00:45:28.025Z,956.85
2018-09-30T00:47:54.362Z,956.90
2018-09-30T00:50:20.673Z,957.02
2018-09-30T00:52:46.990Z,957.09
2018-09-30T00:55:13.305Z,957.03
2018-09-30T00:57:39.623Z,957.16
2018-09-30T01:00:05.941Z,957.16
2018-09-30T01:02:32.438Z,957.14
2018-09-30T01:04:58.758Z,957.11
2018-09-30T01:07:25.074Z,957.16
2018-09-30T01:09:51.393Z,957.20
2018-09-30T01:12:17.711Z,957.14
2018-09-30T01:14:44.030Z,957.14
2018-09-30T01:17:10.387Z,957.16
2018-09-30T01:19:36.703Z,957.16
2018-09-30T01:22:03.019Z,957.16
2018-09-30T01:24:29.329Z,957.16
2018-09-30T01:26:55.685Z,957.12
2018-09-30T01:29:22.004Z,957.18
2018-09-30T01:31:48.317Z,957.15
2018-09-30T01:34:14.638Z,957.18
2018-09-30T01:36:40.951Z,957.24
2018-09-30T01:39:07.303Z,957.24
2018-09-30T01:41:33.622Z,957.21
2018-09-30T01:43:59.942Z,957.16
2018-09-30T01:46:26.261Z,957.17
2018-09-30T01:48:52.579Z,957.23
2018-09-30T01:51:18.893Z,957.22
2018-09-30T01:53:45.209Z,957.16
2018-09-30T01:56:11.531Z,957.16
2018-09-30T01:58:37.845Z,957.19
2018-09-30T02:01:04.161Z,957.19
2018-09-30T02:03:30.478Z,957.27
2018-09-30T02:05:56.837Z,957.28
2018-09-30T02:08:23.153Z,957.33
2018-09-30T02:10:49.513Z,957.34
2018-09-30T02:13:15.833Z,957.32
2018-09-30T02:15:42.153Z,957.26
2018-09-30T02:18:08.461Z,957.26
2018-09-30T02:20:34.782Z,957.29
2018-09-30T02:23:01.093Z,957.34
2018-09-30T02:25:27.419Z,957.35
2018-09-30T02:27:53.737Z,957.25
2018-09-30T02:30:20.059Z,957.26
2018-09-30T02:32:46.373Z,957.18
2018-09-30T02:35:12.695Z,957.16
2018-09-30T02:37:39.010Z,957.22
2018-09-30T02:40:05.330Z,957.24
2018-09-30T02:42:31.649Z,957.30
2018-09-30T02:44:57.959Z,957.30
2018-09-30T02:47:24.274Z,957.34
2018-09-30T02:49:50.586Z,957.34
2018-09-30T02:52:16.906Z,957.37
2018-09-30T02:54:43.221Z,957.36
2018-09-30T02:57:09.543Z,957.40
2018-09-30T02:59:35.859Z,957.42
2018-09-30T03:02:02.169Z,957.43
2018-09-30T03:04:28.491Z,957.43
2018-09-30T03:06:54.807Z,957.47
2018-09-30T03:09:21.141Z,957.56
2018-09-30T03:11:47.457Z,957.57
2018-09-30T03:14:13.775Z,957.57
2018-09-30T03:16:40.093Z,957.60
2018-09-30T03:19:06.455Z,957.63
2018-09-30T03:21:32.766Z,957.59
2018-09-30T03:23:59.085Z,957.60
2018-09-30T03:26:25.406Z,957.53
2018-09-30T03:28:51.727Z,957.51
2018-09-30T03:31:18.041Z,957.55
2018-09-30T03:33:45.375Z,957.62
2018-09-30T03:36:10.714Z,957.64
2018-09-30T03:38:37.032Z,957.68
2018-09-30T03:41:03.356Z,957.65
2018-09-30T03:43:29.676Z,957.67
2018-09-30T03:45:55.985Z,957.73
2018-09-30T03:48:22.332Z,957.72
2018-09-30T03:50:48.687Z,957.71
2018-09-30T03:53:14.997Z,957.75
2018-09-30T03:55:41.350Z,957.74
2018-09-30T03:58:07.669Z,957.74
2018-09-30T04:00:33.987Z,957.78
2018-09-30T04:03:00.302Z,957.83
2018-09-30T04:05:26.622Z,957.81
2018-09-30T04:07:52.936Z,957.80
2018-09-30T04:10:19.250Z,957.81
2018-09-30T04:12:45.569Z,957.79
2018-09-30T04:15:11.882Z,957.85
2018-09-30T04:17:38.199Z,957.80
2018-09-30T04:20:04.518Z,957.81
2018-09-30T04:22:30.835Z,957.91
2018-09-30T04:24:57.157Z,957.88
2018-09-30T04:27:23.472Z,957.90
2018-09-30T04:29:49.785Z,957.86
2018-09-30T04:32:16.098Z,958.00
2018-09-30T04:34:42.415Z,958.05
2018-09-30T04:37:08.763Z,958.04
2018-09-30T04:39:35.049Z,958.04
2018-09-30T04:42:01.362Z,958.16
2018-09-30T04:44:27.682Z,958.09
2018-09-30T04:46:53.991Z,958.15
2018-09-30T04:49:20.306Z,958.21
2018-09-30T04:51:46.621Z,958.16
2018-09-30T04:54:12.939Z,958.15
2018-09-30T04:56:39.253Z,958.08
2018-09-30T04:59:05.576Z,958.09
2018-09-30T05:01:31.885Z,958.13
2018-09-30T05:03:58.206Z,958.10
2018-09-30T05:06:24.524Z,958.14
2018-09-30T05:08:50.844Z,958.14
2018-09-30T05:11:17.163Z,958.12
2018-09-30T05:13:43.481Z,958.10
2018-09-30T05:16:09.846Z,958.13
2018-09-30T05:18:36.154Z,958.17
2018-09-30T05:21:02.473Z,958.20
2018-09-30T05:23:28.785Z,958.21
2018-09-30T05:25:55.100Z,958.21
2018-09-30T05:28:21.463Z,958.21
2018-09-30T05:30:47.777Z,958.26
2018-09-30T05:33:14.095Z,958.33
2018-09-30T05:35:40.418Z,958.30
2018-09-30T05:38:06.829Z,958.38
2018-09-30T05:40:33.104Z,958.39
2018-09-30T05:42:59.462Z,958.27
2018-09-30T05:45:25.779Z,958.26
2018-09-30T05:47:52.113Z,958.42
2018-09-30T05:50:18.449Z,958.39
2018-09-30T05:52:44.811Z,958.34
2018-09-30T05:55:11.122Z,958.38
2018-09-30T05:57:37.447Z,958.35
2018-09-30T06:00:03.800Z,958.46
2018-09-30T06:02:30.116Z,958.40
2018-09-30T06:04:56.437Z,958.40
2018-09-30T06:07:22.754Z,958.34
2018-09-30T06:09:49.073Z,958.37
2018-09-30T06:12:15.464Z,958.44
2018-09-30T06:14:41.786Z,958.43
2018-09-30T06:17:08.098Z,958.43
2018-09-30T06:19:34.420Z,958.47
2018-09-30T06:22:00.737Z,958.48
2018-09-30T06:24:27.056Z,958.48
2018-09-30T06:26:53.365Z,958.58
2018-09-30T06:29:19.691Z,958.66
2018-09-30T06:31:46.253Z,958.57
2018-09-30T06:34:12.502Z,958.71
2018-09-30T06:36:38.818Z,958.74
2018-09-30T06:39:05.134Z,958.73
2018-09-30T06:41:31.449Z,958.68
2018-09-30T06:43:57.766Z,958.75
2018-09-30T06:46:24.084Z,958.73
2018-09-30T06:48:50.402Z,958.69
2018-09-30T06:51:16.726Z,958.72
2018-09-30T06:53:43.051Z,958.78
2018-09-30T06:56:09.365Z,958.76
2018-09-30T06:58:35.700Z,958.79
2018-09-30T07:01:02.017Z,958.89
2018-09-30T07:03:28.336Z,958.82
2018-09-30T07:05:54.647Z,958.86
2018-09-30T07:08:20.994Z,958.81
2018-09-30T07:10:47.347Z,958.84
2018-09-30T07:13:13.638Z,958.86
2018-09-30T07:15:40.054Z,958.80
2018-09-30T07:18:06.369Z,958.84
2018-09-30T07:20:32.686Z,958.86
2018-09-30T07:22:59.013Z,958.86
2018-09-30T07:25:25.328Z,958.94
2018-09-30T07:27:51.650Z,958.89
2018-09-30T07:30:17.963Z,958.85
2018-09-30T07:32:44.297Z,958.93
2018-09-30T07:35:10.624Z,958.91
2018-09-30T07:37:36.937Z,958.93
2018-09-30T07:40:03.265Z,959.01
2018-09-30T07:42:29.585Z,958.98
2018-09-30T07:44:55.905Z,958.97
2018-09-30T07:47:22.224Z,958.96
2018-09-30T07:49:48.539Z,958.99
2018-09-30T07:52:14.854Z,959.01
2018-09-30T07:54:41.173Z,958.97
2018-09-30T07:57:07.492Z,959.01
2018-09-30T07:59:33.807Z,959.01
2018-09-30T08:02:00.127Z,959.07
2018-09-30T08:04:26.441Z,958.96
2018-09-30T08:06:52.764Z,959.07
2018-09-30T08:09:19.091Z,959.08
2018-09-30T08:11:45.405Z,959.03
2018-09-30T08:14:11.713Z,959.03
2018-09-30T08:16:38.091Z,958.94
2018-09-30T08:19:04.390Z,958.99
2018-09-30T08:21:31.044Z,958.98
2018-09-30T08:23:57.376Z,958.98
2018-09-30T08:26:23.683Z,958.92
2018-09-30T08:28:50.005Z,958.95
2018-09-30T08:31:16.326Z,958.98
2018-09-30T08:33:42.663Z,958.85
2018-09-30T08:36:08.989Z,958.96
2018-09-30T08:38:35.352Z,958.90
2018-09-30T08:41:01.707Z,958.95
2018-09-30T08:43:28.026Z,958.97
2018-09-30T08:45:54.353Z,958.91
2018-09-30T08:48:20.654Z,958.87
2018-09-30T08:50:46.975Z,958.81
2018-09-30T08:53:13.295Z,958.88
2018-09-30T08:55:39.628Z,958.83
2018-09-30T08:58:05.939Z,958.86
2018-09-30T09:00:32.258Z,958.78
2018-09-30T09:02:58.589Z,958.72
2018-09-30T09:05:24.900Z,958.79
2018-09-30T09:07:51.223Z,958.82
2018-09-30T09:10:17.543Z,958.81
2018-09-30T09:12:43.860Z,958.77
2018-09-30T09:15:10.178Z,958.74
2018-09-30T09:17:36.499Z,958.73
2018-09-30T09:20:02.824Z,958.70
2018-09-30T09:22:29.178Z,958.70
2018-09-30T09:24:55.462Z,958.69
2018-09-30T09:27:21.781Z,958.69
2018-09-30T09:29:48.104Z,958.71
2018-09-30T09:32:14.422Z,958.61
2018-09-30T09:34:40.741Z,958.55
2018-09-30T09:37:07.072Z,958.53
2018-09-30T09:39:33.385Z,958.50
2018-09-30T09:41:59.705Z,958.49
2018-09-30T09:44:26.033Z,958.46
2018-09-30T09:46:52.395Z,958.55
2018-09-30T09:49:18.674Z,958.44
2018-09-30T09:51:44.998Z,958.47
2018-09-30T09:54:11.324Z,958.50
2018-09-30T09:56:37.648Z,958.43
2018-09-30T09:59:03.988Z,958.46
2018-09-30T10:01:30.281Z,958.51
2018-09-30T10:03:56.603Z,958.51
2018-09-30T10:06:22.985Z,958.46
2018-09-30T10:08:49.314Z,958.49
2018-09-30T10:11:15.630Z,958.44
2018-09-30T10:13:41.955Z,958.46
2018-09-30T10:16:08.283Z,958.42
2018-09-30T10:18:34.594Z,958.45
2018-09-30T10:21:00.917Z,958.47
2018-09-30T10:23:27.243Z,958.45
2018-09-30T10:25:53.567Z,958.41
2018-09-30T10:28:19.882Z,958.41
2018-09-30T10:30:46.208Z,958.47
2018-09-30T10:33:12.524Z,958.35
2018-09-30T10:35:38.849Z,958.41
2018-09-30T10:38:05.171Z,958.38
2018-09-30T10:40:31.544Z,958.41
2018-09-30T10:42:57.860Z,958.35
2018-09-30T10:45:24.187Z,958.39
2018-09-30T10:47:50.506Z,958.30
2018-09-30T10:50:16.828Z,958.37
2018-09-30T10:52:43.153Z,958.34
2018-09-30T10:55:09.507Z,958.27
2018-09-30T10:57:35.803Z,958.22
2018-09-30T11:00:02.116Z,958.22
2018-09-30T11:02:28.440Z,958.17
2018-09-30T11:04:54.759Z,958.23
2018-09-30T11:07:21.074Z,958.14
2018-09-30T11:09:47.473Z,958.14
2018-09-30T11:12:13.714Z,958.10
2018-09-30T11:14:40.042Z,958.14
2018-09-30T11:17:06.361Z,958.11
2018-09-30T11:19:32.682Z,958.07
2018-09-30T11:21:58.998Z,958.01
2018-09-30T11:24:25.425Z,958.03
2018-09-30T11:26:51.946Z,957.98
2018-09-30T11:29:18.355Z,958.01
2018-09-30T11:31:44.716Z,957.99
2018-09-30T11:34:11.085Z,957.92
2018-09-30T11:36:37.593Z,957.92
2018-09-30T11:39:04.110Z,957.93
2018-09-30T11:41:30.433Z,957.94
2018-09-30T11:43:56.977Z,957.95
2018-09-30T11:46:23.295Z,957.98
2018-09-30T11:48:49.660Z,957.94
2018-09-30T11:51:15.981Z,957.93
2018-09-30T11:53:42.335Z,957.97
2018-09-30T11:56:08.655Z,957.90
2018-09-30T11:58:34.979Z,957.91
2018-09-30T12:01:01.331Z,957.92
2018-09-30T12:03:27.631Z,957.92
2018-09-30T12:05:53.996Z,957.86
2018-09-30T12:08:20.315Z,957.84
2018-09-30T12:10:46.676Z,957.83
2018-09-30T12:13:12.996Z,957.84
2018-09-30T12:15:39.321Z,957.89
2018-09-30T12:18:05.644Z,957.79
2018-09-30T12:20:31.961Z,957.76
2018-09-30T12:22:58.284Z,957.73
2018-09-30T12:25:24.604Z,957.76
2018-09-30T12:27:50.928Z,957.74
2018-09-30T12:30:17.247Z,957.71
2018-09-30T12:32:43.567Z,957.66
2018-09-30T12:35:09.884Z,957.53
2018-09-30T12:37:36.203Z,957.58
2018-09-30T12:40:02.525Z,957.56
2018-09-30T12:42:28.837Z,957.55
2018-09-30T12:44:55.163Z,957.53
2018-09-30T12:47:21.488Z,957.49
2018-09-30T12:49:47.811Z,957.47
2018-09-30T12:52:14.128Z,957.42
2018-09-30T12:54:40.453Z,957.38
2018-09-30T12:57:06.784Z,957.42
2018-09-30T12:59:33.103Z,957.43
2018-09-30T13:01:59.421Z,957.42
2018-09-30T13:04:25.750Z,957.45
2018-09-30T13:06:52.068Z,957.48
2018-09-30T13:09:18.387Z,957.43
2018-09-30T13:11:44.708Z,957.38
2018-09-30T13:14:11.027Z,957.38
2018-09-30T13:16:37.353Z,957.34
2018-09-30T13:19:03.673Z,957.37
2018-09-30T13:21:30.007Z,957.32
2018-09-30T13:23:56.331Z,957.26
2018-09-30T13:26:22.684Z,957.19
2018-09-30T13:28:48.999Z,957.32
2018-09-30T13:31:15.323Z,957.22
2018-09-30T13:33:41.639Z,957.31
2018-09-30T13:36:07.958Z,957.25
2018-09-30T13:38:34.275Z,957.21
2018-09-30T13:41:00.696Z,957.23
2018-09-30T13:43:26.916Z,957.22
2018-09-30T13:45:53.260Z,957.24
2018-09-30T13:48:19.647Z,957.17
2018-09-30T13:50:45.984Z,957.19
2018-09-30T13:53:12.308Z,957.19
2018-09-30T13:55:38.694Z,957.21
2018-09-30T13:58:05.024Z,957.21
2018-09-30T14:00:31.352Z,957.18
2018-09-30T14:02:57.668Z,957.17
2018-09-30T14:05:24.027Z,957.25
2018-09-30T14:07:50.347Z,957.21
2018-09-30T14:10:16.668Z,957.19
2018-09-30T14:12:42.981Z,957.31
2018-09-30T14:15:09.313Z,957.31
2018-09-30T14:17:35.640Z,957.28
2018-09-30T14:20:01.959Z,957.31
2018-09-30T14:22:28.283Z,957.32
2018-09-30T14:24:54.619Z,957.28
2018-09-30T14:30:08.916Z,957.29
2018-09-30T14:32:43.055Z,957.32
2018-09-30T14:38:06.828Z,957.20
2018-09-30T14:40:33.164Z,957.23
2018-09-30T14:42:59.483Z,957.19
2018-09-30T14:45:25.810Z,957.21
2018-09-30T14:47:52.126Z,957.19
2018-09-30T14:50:18.446Z,957.22
2018-09-30T14:52:44.812Z,957.32
2018-09-30T14:55:11.122Z,957.34
2018-09-30T14:57:37.444Z,957.28
2018-09-30T15:00:03.996Z,957.29
2018-09-30T15:02:30.318Z,957.32
2018-09-30T15:04:56.730Z,957.32
2018-09-30T15:07:23.134Z,957.28
2018-09-30T15:09:49.384Z,957.27
2018-09-30T15:12:15.710Z,957.46
2018-09-30T15:14:42.037Z,957.38
2018-09-30T15:17:08.376Z,957.39
2018-09-30T15:19:34.702Z,957.27
2018-09-30T15:22:01.027Z,957.34
2018-09-30T15:24:27.346Z,957.32
2018-09-30T15:26:53.672Z,957.27
2018-09-30T15:29:19.995Z,957.30
2018-09-30T15:31:46.316Z,957.46
2018-09-30T15:34:12.633Z,957.23
2018-09-30T15:36:38.954Z,957.28
2018-09-30T15:39:05.271Z,957.20
2018-09-30T15:41:31.594Z,957.26
2018-09-30T15:43:57.914Z,957.21
2018-09-30T15:46:24.238Z,957.19
2018-09-30T15:48:50.567Z,957.18
2018-09-30T15:51:16.925Z,957.32
2018-09-30T15:53:43.252Z,957.30
2018-09-30T15:56:09.608Z,957.34
2018-09-30T15:58:35.942Z,957.31
2018-09-30T16:01:02.296Z,957.38
2018-09-30T16:03:28.623Z,957.31
2018-09-30T16:05:54.943Z,957.39
2018-09-30T16:08:21.271Z,957.24
2018-09-30T16:10:47.591Z,957.27
2018-09-30T16:13:13.992Z,957.28
2018-09-30T16:15:40.256Z,957.28
2018-09-30T16:18:06.582Z,957.29
2018-09-30T16:20:32.925Z,957.27
2018-09-30T16:22:59.242Z,957.24
2018-09-30T16:25:25.584Z,957.27
2018-09-30T16:27:51.926Z,957.13
2018-09-30T16:30:18.244Z,957.24
2018-09-30T16:32:44.653Z,957.20
2018-09-30T16:35:11.103Z,957.26
2018-09-30T16:37:37.428Z,957.25
2018-09-30T16:40:03.771Z,957.33
2018-09-30T16:42:30.175Z,957.30
2018-09-30T16:44:56.618Z,957.33
2018-09-30T16:47:23.052Z,957.36
2018-09-30T16:49:49.385Z,957.43
2018-09-30T16:52:15.740Z,957.40
2018-09-30T16:54:42.255Z,957.30
2018-09-30T16:57:08.596Z,957.31
2018-09-30T16:59:34.935Z,957.34
2018-09-30T17:02:01.281Z,957.33
2018-09-30T17:04:27.603Z,957.29
2018-09-30T17:06:54.118Z,957.31
2018-09-30T17:09:20.452Z,957.28
2018-09-30T17:11:46.827Z,957.29
2018-09-30T17:14:13.490Z,957.27
2018-09-30T17:16:39.816Z,957.31
2018-09-30T17:19:06.134Z,957.39
2018-09-30T17:21:32.456Z,957.26
2018-09-30T17:23:58.785Z,957.32
2018-09-30T17:26:25.161Z,957.28
2018-09-30T17:28:51.593Z,957.36
2018-09-30T17:31:17.950Z,957.32
2018-09-30T17:33:44.315Z,957.35
2018-09-30T17:36:10.681Z,957.36
2018-09-30T17:38:37.000Z,957.37
2018-09-30T17:41:03.360Z,957.46
2018-09-30T17:43:29.687Z,957.50
2018-09-30T17:45:56.060Z,957.43
2018-09-30T17:48:22.384Z,957.36
2018-09-30T17:50:48.702Z,957.42
2018-09-30T17:53:15.028Z,957.43
2018-09-30T17:55:41.353Z,957.47
2018-09-30T17:58:07.689Z,957.47
2018-09-30T18:00:35.694Z,957.44
2018-09-30T18:03:02.409Z,957.42
2018-09-30T18:05:28.727Z,957.47
2018-09-30T18:07:55.487Z,957.44
2018-09-30T18:10:22.019Z,957.44
2018-09-30T18:12:48.548Z,957.45
2018-09-30T18:15:15.084Z,957.44
2018-09-30T18:17:41.495Z,957.37
2018-09-30T18:20:08.162Z,957.41
2018-09-30T18:22:34.696Z,957.49
2018-09-30T18:25:01.567Z,957.46
2018-09-30T18:27:28.238Z,957.40
2018-09-30T18:29:55.047Z,957.50
2018-09-30T18:32:21.705Z,957.44
2018-09-30T18:34:48.424Z,957.43
2018-09-30T18:37:15.063Z,957.40
2018-09-30T18:39:41.576Z,957.40
2018-09-30T18:42:08.107Z,957.44
2018-09-30T18:44:34.874Z,957.41
2018-09-30T18:47:01.319Z,957.32
2018-09-30T18:49:27.785Z,957.40
2018-09-30T18:51:54.228Z,957.33
2018-09-30T18:54:20.602Z,957.35
2018-09-30T18:56:46.924Z,957.29
2018-09-30T18:59:13.248Z,957.23
2018-09-30T19:01:39.622Z,957.29
2018-09-30T19:04:05.976Z,957.19
2018-09-30T19:06:32.306Z,957.24
2018-09-30T19:08:58.630Z,957.21
2018-09-30T19:11:24.956Z,957.20
2018-09-30T19:13:51.321Z,957.19
2018-09-30T19:16:17.780Z,957.22
2018-09-30T19:18:44.000Z,957.18
2018-09-30T19:21:10.318Z,957.15
2018-09-30T19:23:36.735Z,957.12
2018-09-30T19:26:03.064Z,957.14
2018-09-30T19:28:29.859Z,957.09
2018-09-30T19:30:56.221Z,957.12
2018-09-30T19:33:23.958Z,957.11
2018-09-30T19:35:48.889Z,957.11
2018-09-30T19:38:15.232Z,957.10
2018-09-30T19:40:41.565Z,957.08
2018-09-30T19:43:07.986Z,957.03
2018-09-30T19:45:34.308Z,956.95
2018-09-30T19:48:00.628Z,956.98
2018-09-30T19:50:26.952Z,956.95
2018-09-30T19:52:53.307Z,956.93
2018-09-30T19:55:19.686Z,956.94
2018-09-30T19:57:46.011Z,956.97
2018-09-30T20:00:12.341Z,956.92
2018-09-30T20:02:38.671Z,956.94
2018-09-30T20:05:04.987Z,956.87
2018-09-30T20:07:31.330Z,956.83
2018-09-30T20:09:57.673Z,956.81
2018-09-30T20:12:23.987Z,956.85
2018-09-30T20:14:50.314Z,956.77
2018-09-30T20:17:16.634Z,956.81
2018-09-30T20:19:42.958Z,956.73
2018-09-30T20:22:09.280Z,956.71
2018-09-30T20:24:35.596Z,956.69
2018-09-30T20:27:01.917Z,956.72
2018-09-30T20:29:28.236Z,956.66
2018-09-30T20:31:54.555Z,956.62
2018-09-30T20:34:20.876Z,956.67
2018-09-30T20:36:47.196Z,956.62
2018-09-30T20:39:13.515Z,956.54
2018-09-30T20:41:39.870Z,956.51
2018-09-30T20:44:06.192Z,956.53
2018-09-30T20:46:32.511Z,956.48
2018-09-30T20:48:58.935Z,956.53
2018-09-30T20:51:25.197Z,956.49
2018-09-30T20:53:51.521Z,956.48
2018-09-30T20:56:17.837Z,956.49
2018-09-30T20:58:44.158Z,956.38
2018-09-30T21:01:10.479Z,956.40
2018-09-30T21:03:36.802Z,956.41
2018-09-30T21:06:03.126Z,956.37
2018-09-30T21:08:29.441Z,956.40
2018-09-30T21:10:55.761Z,956.40
2018-09-30T21:13:22.080Z,956.38
2018-09-30T21:15:48.435Z,956.30
2018-09-30T21:18:14.760Z,956.24
2018-09-30T21:20:41.123Z,956.26
2018-09-30T21:23:07.548Z,956.18
2018-09-30T21:25:33.923Z,956.20
2018-09-30T21:28:00.247Z,956.12
2018-09-30T21:30:26.574Z,956.17
2018-09-30T21:32:52.895Z,956.11
2018-09-30T21:35:19.218Z,956.22
2018-09-30T21:37:45.581Z,956.03
2018-09-30T21:40:11.903Z,956.06
2018-09-30T21:42:38.219Z,956.06
2018-09-30T21:45:04.541Z,955.98
2018-09-30T21:47:30.873Z,955.92
2018-09-30T21:49:57.205Z,955.90
2018-09-30T21:52:23.543Z,955.90
2018-09-30T21:54:49.871Z,955.87
2018-09-30T21:57:16.291Z,955.83
2018-09-30T21:59:42.621Z,955.77
2018-09-30T22:02:08.957Z,955.84
2018-09-30T22:04:35.289Z,955.75
2018-09-30T22:07:01.632Z,955.76
2018-09-30T22:09:27.972Z,955.77
2018-09-30T22:11:54.305Z,955.70
2018-09-30T22:14:20.677Z,955.66
2018-09-30T22:16:47.025Z,955.62
2018-09-30T22:19:13.416Z,955.69
2018-09-30T22:21:39.699Z,955.61
2018-09-30T22:24:06.034Z,955.60
2018-09-30T22:26:32.373Z,955.55
2018-09-30T22:28:58.689Z,955.58
2018-09-30T22:31:25.013Z,955.57
2018-09-30T22:33:51.339Z,955.51
2018-09-30T22:36:17.654Z,955.46
2018-09-30T22:38:43.969Z,955.49
2018-09-30T22:41:10.283Z,955.53
2018-09-30T22:43:36.598Z,955.54
2018-09-30T22:46:02.969Z,955.52
2018-09-30T22:48:29.285Z,955.54
2018-09-30T22:50:55.605Z,955.48
2018-09-30T22:53:21.991Z,955.53
2018-09-30T22:55:48.247Z,955.47
2018-09-30T22:58:14.565Z,955.46
2018-09-30T23:00:40.896Z,955.43
2018-09-30T23:03:07.201Z,955.42
2018-09-30T23:05:33.517Z,955.35
2018-09-30T23:07:59.833Z,955.35
2018-09-30T23:10:26.152Z,955.39
2018-09-30T23:12:52.470Z,955.26
2018-09-30T23:15:18.791Z,955.29
2018-09-30T23:17:45.107Z,955.28
2018-09-30T23:20:11.417Z,955.29
2018-09-30T23:22:37.738Z,955.20
2018-09-30T23:25:04.056Z,955.20
2018-09-30T23:27:30.366Z,955.20
2018-09-30T23:29:56.688Z,955.09
2018-09-30T23:32:23.004Z,955.10
2018-09-30T23:34:49.331Z,955.10
2018-09-30T23:37:15.646Z,955.13
2018-09-30T23:39:41.978Z,955.04
2018-09-30T23:42:08.287Z,955.08
2018-09-30T23:44:34.611Z,955.06
2018-09-30T23:47:00.926Z,955.03
2018-09-30T23:49:27.252Z,955.04
2018-09-30T23:51:53.607Z,955.00
2018-09-30T23:54:19.920Z,954.93
2018-09-30T23:56:46.236Z,954.97
2018-09-30T23:59:12.550Z,954.91
